createdAt,value
2023-02-14T00:02:13.956Z,4.01
2023-02-14T00:04:45.745Z,3.96
2023-02-14T00:07:15.225Z,3.94
2023-02-14T00:09:50.007Z,3.94
2023-02-14T00:12:16.821Z,3.95
2023-02-14T00:15:01.952Z,3.94
2023-02-14T00:17:28.745Z,3.93
2023-02-14T00:19:55.402Z,3.88
2023-02-14T00:22:22.170Z,3.93
2023-02-14T00:24:51.680Z,3.94
2023-02-14T00:27:25.571Z,3.97
2023-02-14T00:29:52.577Z,3.99
2023-02-14T00:32:21.841Z,4.01
2023-02-14T00:34:49.127Z,4.04
2023-02-14T00:37:15.809Z,4.09
2023-02-14T00:39:42.454Z,4.08
2023-02-14T00:42:09.131Z,4.05
2023-02-14T00:44:35.811Z,4.02
2023-02-14T00:47:05.785Z,3.94
2023-02-14T00:49:41.102Z,3.94
2023-02-14T00:52:08.270Z,3.96
2023-02-14T00:54:34.982Z,3.94
2023-02-14T00:57:03.946Z,3.90
2023-02-14T00:59:30.719Z,3.94
2023-02-14T01:01:57.507Z,3.95
2023-02-14T01:04:24.200Z,3.92
2023-02-14T01:06:53.423Z,3.91
2023-02-14T01:09:22.845Z,3.92
2023-02-14T01:11:52.773Z,3.94
2023-02-14T01:14:21.959Z,3.95
2023-02-14T01:16:50.201Z,3.93
2023-02-14T01:19:17.059Z,3.95
2023-02-14T01:21:44.035Z,3.96
2023-02-14T01:24:12.933Z,3.93
2023-02-14T01:26:40.045Z,3.88
2023-02-14T01:29:07.095Z,3.86
2023-02-14T01:31:38.555Z,3.86
2023-02-14T01:34:08.398Z,3.88
2023-02-14T01:36:44.511Z,3.88
2023-02-14T01:39:15.581Z,3.87
2023-02-14T01:41:49.711Z,3.90
2023-02-14T01:44:16.849Z,3.88
2023-02-14T01:46:46.371Z,3.86
2023-02-14T01:49:26.071Z,3.82
2023-02-14T01:52:31.311Z,3.79
2023-02-14T01:55:09.949Z,3.82
2023-02-14T01:58:03.006Z,3.81
2023-02-14T02:00:48.539Z,3.83
2023-02-14T02:03:19.826Z,3.82
2023-02-14T02:05:57.718Z,3.80
2023-02-14T02:08:25.257Z,3.75
2023-02-14T02:10:55.102Z,3.79
2023-02-14T02:13:25.424Z,3.77
2023-02-14T02:16:29.823Z,3.79
2023-02-14T02:20:13.916Z,3.82
2023-02-14T02:23:33.804Z,3.85
2023-02-14T02:26:33.786Z,3.86
2023-02-14T02:29:08.069Z,3.85
2023-02-14T02:32:15.380Z,3.86
2023-02-14T02:35:20.862Z,3.81
2023-02-14T02:38:24.783Z,3.80
2023-02-14T02:41:28.544Z,3.78
2023-02-14T02:44:26.752Z,3.77
2023-02-14T02:47:37.369Z,3.77
2023-02-14T02:50:59.034Z,3.75
2023-02-14T02:53:48.887Z,3.73
2023-02-14T02:56:47.277Z,3.70
2023-02-14T02:59:28.408Z,3.68
2023-02-14T03:02:18.391Z,3.71
2023-02-14T03:04:59.458Z,3.72
2023-02-14T03:07:41.979Z,3.73
2023-02-14T03:10:16.009Z,3.71
2023-02-14T03:13:08.204Z,3.68
2023-02-14T03:16:22.055Z,3.67
2023-02-14T03:19:34.904Z,3.69
2023-02-14T03:22:41.586Z,3.66
2023-02-14T03:25:41.735Z,3.62
2023-02-14T03:28:22.264Z,3.63
2023-02-14T03:31:20.840Z,3.66
2023-02-14T03:34:35.341Z,3.64
2023-02-14T03:37:55.516Z,3.62
2023-02-14T03:40:34.518Z,3.60
2023-02-14T03:43:10.238Z,3.57
2023-02-14T03:45:51.933Z,3.53
2023-02-14T03:48:28.975Z,3.53
2023-02-14T03:51:04.242Z,3.46
2023-02-14T03:53:38.939Z,3.42
2023-02-14T03:56:32.178Z,3.43
2023-02-14T03:59:16.546Z,3.47
2023-02-14T04:01:59.715Z,3.43
2023-02-14T04:04:38.286Z,3.46
2023-02-14T04:07:22.429Z,3.46
2023-02-14T04:09:52.666Z,3.44
2023-02-14T04:12:32.234Z,3.44
2023-02-14T04:15:05.043Z,3.40
2023-02-14T04:17:50.487Z,3.40
2023-02-14T04:20:17.557Z,3.39
2023-02-14T04:22:46.189Z,3.37
2023-02-14T04:25:14.770Z,3.39
2023-02-14T04:27:41.932Z,3.38
2023-02-14T04:30:10.276Z,3.38
2023-02-14T04:32:36.976Z,3.36
2023-02-14T04:35:09.445Z,3.31
2023-02-14T04:37:36.428Z,3.29
2023-02-14T04:40:04.028Z,3.27
2023-02-14T04:42:30.676Z,3.26
2023-02-14T04:45:01.425Z,3.25
2023-02-14T04:47:36.002Z,3.23
2023-02-14T04:50:03.381Z,3.25
2023-02-14T04:52:30.028Z,3.22
2023-02-14T04:54:56.834Z,3.20
2023-02-14T04:57:23.564Z,3.20
2023-02-14T04:59:50.355Z,3.12
2023-02-14T05:02:16.946Z,3.14
2023-02-14T05:04:48.819Z,3.12
2023-02-14T05:07:16.697Z,3.10
2023-02-14T05:09:43.422Z,3.12
2023-02-14T05:12:10.253Z,3.09
2023-02-14T05:14:43.459Z,3.05
2023-02-14T05:17:10.153Z,3.06
2023-02-14T05:19:37.010Z,3.05
2023-02-14T05:22:04.342Z,3.04
2023-02-14T05:24:31.180Z,3.02
2023-02-14T05:26:57.925Z,2.99
2023-02-14T05:29:25.009Z,2.98
2023-02-14T05:31:51.644Z,3.00
2023-02-14T05:34:21.790Z,3.00
2023-02-14T05:36:51.120Z,2.95
2023-02-14T05:39:17.916Z,2.95
2023-02-14T05:41:44.545Z,2.95
2023-02-14T05:44:11.574Z,2.92
2023-02-14T05:46:38.422Z,2.91
2023-02-14T05:49:05.075Z,2.91
2023-02-14T05:51:31.739Z,2.94
2023-02-14T05:54:00.029Z,2.91
2023-02-14T05:56:29.785Z,2.95
2023-02-14T05:58:59.590Z,2.91
2023-02-14T06:20:22.651Z,2.74
2023-02-14T06:22:54.314Z,2.73
2023-02-14T06:25:23.619Z,2.72
2023-02-14T06:52:07.591Z,2.71
2023-02-14T07:05:22.673Z,2.69
2023-02-14T07:29:28.630Z,2.80
2023-02-14T07:31:55.473Z,2.86
2023-02-14T07:34:22.165Z,2.87
2023-02-14T07:36:51.653Z,2.85
2023-02-14T07:39:18.324Z,2.87
2023-02-14T07:41:44.946Z,2.86
2023-02-14T07:44:11.889Z,2.87
2023-02-14T07:46:38.889Z,2.85
2023-02-14T07:49:05.708Z,2.89
2023-02-14T07:51:37.789Z,2.98
2023-02-14T07:54:05.090Z,2.99
2023-02-14T07:56:34.593Z,2.93
2023-02-14T07:59:01.457Z,2.94
2023-02-14T08:01:28.334Z,3.02
2023-02-14T08:03:57.829Z,3.03
2023-02-14T08:06:26.072Z,3.08
2023-02-14T08:08:52.862Z,3.11
2023-02-14T08:11:42.699Z,3.15
2023-02-14T08:14:09.487Z,3.08
2023-02-14T08:16:38.076Z,3.17
2023-02-14T08:19:04.730Z,3.27
2023-02-14T08:21:33.852Z,3.32
2023-02-14T08:24:00.722Z,3.33
2023-02-14T08:26:27.444Z,3.38
2023-02-14T08:28:54.348Z,3.35
2023-02-14T08:31:35.163Z,3.43
2023-02-14T08:34:03.195Z,3.50
2023-02-14T08:36:29.955Z,3.55
2023-02-14T08:38:57.666Z,3.58
2023-02-14T08:41:24.878Z,3.66
2023-02-14T08:43:52.157Z,3.77
2023-02-14T08:46:25.022Z,3.77
2023-02-14T08:48:53.344Z,3.74
2023-02-14T08:51:23.914Z,3.74
2023-02-14T08:53:52.022Z,3.80
2023-02-14T08:56:21.462Z,3.83
2023-02-14T08:58:51.234Z,3.83
2023-02-14T09:01:20.776Z,3.89
2023-02-14T09:03:49.625Z,3.96
2023-02-14T09:06:17.940Z,3.92
2023-02-14T09:08:45.777Z,3.96
2023-02-14T09:11:19.155Z,4.05
2023-02-14T09:13:47.506Z,4.06
2023-02-14T09:16:20.155Z,4.07
2023-02-14T09:18:52.928Z,4.13
2023-02-14T09:21:26.331Z,4.14
2023-02-14T09:23:53.980Z,4.24
2023-02-14T09:26:24.193Z,4.28
2023-02-14T09:28:51.015Z,4.27
2023-02-14T09:31:25.772Z,4.33
2023-02-14T09:33:52.691Z,4.36
2023-02-14T09:36:38.331Z,4.41
2023-02-14T09:39:05.116Z,4.53
2023-02-14T09:43:09.804Z,4.66
2023-02-14T09:45:50.581Z,4.86
2023-02-14T09:48:50.713Z,4.86
2023-02-14T09:51:30.036Z,5.00
2023-02-14T09:54:14.188Z,5.04
2023-02-14T09:57:22.435Z,4.94
2023-02-14T10:00:28.945Z,4.91
2023-02-14T10:03:06.207Z,4.92
2023-02-14T10:05:57.941Z,5.03
2023-02-14T10:08:50.879Z,4.98
2023-02-14T10:11:23.093Z,5.19
2023-02-14T10:14:04.130Z,5.20
2023-02-14T10:17:16.824Z,5.34
2023-02-14T10:19:58.346Z,5.31
2023-02-14T10:22:44.613Z,5.14
2023-02-14T10:25:29.180Z,5.14
2023-02-14T10:28:01.711Z,5.16
2023-02-14T10:30:59.981Z,5.27
2023-02-14T10:33:41.467Z,5.28
2023-02-14T10:37:10.451Z,5.41
2023-02-14T10:40:16.004Z,5.62
2023-02-14T10:43:16.072Z,5.84
2023-02-14T10:46:13.571Z,5.86
2023-02-14T10:49:47.102Z,5.93
2023-02-14T10:52:59.350Z,5.83
2023-02-14T10:56:09.762Z,5.80
2023-02-14T10:58:41.259Z,5.82
2023-02-14T11:01:17.365Z,6.07
2023-02-14T11:04:04.174Z,6.05
2023-02-14T11:06:31.732Z,5.66
2023-02-14T11:08:59.230Z,5.55
2023-02-14T11:11:42.865Z,5.53
2023-02-14T11:14:32.485Z,5.55
2023-02-14T11:17:35.866Z,5.66
2023-02-14T11:20:28.731Z,6.02
2023-02-14T11:22:55.359Z,6.19
2023-02-14T11:25:35.601Z,6.16
2023-02-14T11:28:08.394Z,6.49
2023-02-14T11:30:50.039Z,6.44
2023-02-14T11:33:35.083Z,6.38
2023-02-14T11:36:09.833Z,6.68
2023-02-14T11:38:43.940Z,6.51
2023-02-14T11:41:16.876Z,6.41
2023-02-14T11:43:52.156Z,6.45
2023-02-14T11:46:21.441Z,6.35
2023-02-14T11:49:07.153Z,6.45
2023-02-14T11:51:45.506Z,6.55
2023-02-14T11:54:34.891Z,6.70
2023-02-14T11:57:13.587Z,6.57
2023-02-14T11:59:58.125Z,6.60
2023-02-14T12:02:51.574Z,6.51
2023-02-14T12:05:53.937Z,6.42
2023-02-14T12:08:31.652Z,6.72
2023-02-14T12:11:26.396Z,6.55
2023-02-14T12:13:58.632Z,6.51
2023-02-14T12:17:01.689Z,6.67
2023-02-14T12:20:16.625Z,6.83
2023-02-14T12:23:10.431Z,7.03
2023-02-14T12:26:00.196Z,7.07
2023-02-14T12:28:43.993Z,7.27
2023-02-14T12:31:17.400Z,7.64
2023-02-14T12:33:46.366Z,7.59
2023-02-14T12:36:57.477Z,8.04
2023-02-14T12:39:49.520Z,8.68
2023-02-14T12:42:48.824Z,9.16
2023-02-14T12:46:14.272Z,9.34
2023-02-14T12:49:37.967Z,9.57
2023-02-14T12:52:47.469Z,9.44
2023-02-14T12:55:33.096Z,9.35
2023-02-14T12:58:28.995Z,8.55
2023-02-14T13:01:43.065Z,7.61
2023-02-14T13:05:08.432Z,7.57
2023-02-14T13:08:23.821Z,7.63
2023-02-14T13:11:21.665Z,8.31
2023-02-14T13:14:16.172Z,7.96
2023-02-14T13:17:23.915Z,8.22
2023-02-14T13:20:50.412Z,8.55
2023-02-14T13:23:43.572Z,9.11
2023-02-14T13:26:19.016Z,9.16
2023-02-14T13:29:05.942Z,9.09
2023-02-14T13:31:34.379Z,9.52
2023-02-14T13:34:25.161Z,9.56
2023-02-14T13:36:55.499Z,9.92
2023-02-14T13:39:54.761Z,10.55
2023-02-14T13:42:57.108Z,10.43
2023-02-14T13:45:32.789Z,9.45
2023-02-14T13:48:21.905Z,8.73
2023-02-14T13:51:02.444Z,8.42
2023-02-14T13:53:50.238Z,9.00
2023-02-14T13:56:16.794Z,9.77
2023-02-14T13:59:03.153Z,9.99
2023-02-14T14:01:50.472Z,9.82
2023-02-14T14:04:26.237Z,9.95
2023-02-14T14:07:04.965Z,9.93
2023-02-14T14:09:54.817Z,9.84
2023-02-14T14:12:27.417Z,10.16
2023-02-14T14:15:06.098Z,10.30
2023-02-14T14:18:15.336Z,10.47
2023-02-14T14:20:55.468Z,10.04
2023-02-14T14:23:37.170Z,9.77
2023-02-14T14:26:35.069Z,9.77
2023-02-14T14:29:03.227Z,9.89
2023-02-14T14:31:30.349Z,10.05
2023-02-14T14:34:01.002Z,9.58
2023-02-14T14:36:28.229Z,10.24
2023-02-14T14:38:54.898Z,10.58
2023-02-14T14:41:31.730Z,11.02
2023-02-14T14:44:00.220Z,11.03
2023-02-14T14:46:27.903Z,11.25
2023-02-14T14:48:57.559Z,11.12
2023-02-14T14:51:36.037Z,10.99
2023-02-14T14:54:27.533Z,10.61
2023-02-14T14:57:02.797Z,10.03
2023-02-14T14:59:40.306Z,9.69
2023-02-14T15:02:27.896Z,9.37
2023-02-14T15:04:54.655Z,9.44
2023-02-14T15:07:33.273Z,8.92
2023-02-14T15:10:01.215Z,8.52
2023-02-14T15:12:48.421Z,8.39
2023-02-14T15:15:18.990Z,7.77
2023-02-14T15:17:51.441Z,7.16
2023-02-14T15:20:24.380Z,6.86
2023-02-14T15:22:53.809Z,6.50
2023-02-14T15:25:34.861Z,6.19
2023-02-14T15:28:02.700Z,5.53
2023-02-14T15:30:49.380Z,5.19
2023-02-14T15:33:16.347Z,5.00
2023-02-14T15:35:45.789Z,4.82
2023-02-14T15:38:18.164Z,4.63
2023-02-14T15:40:52.194Z,4.36
2023-02-14T15:43:18.757Z,4.25
2023-02-14T15:46:20.788Z,4.08
2023-02-14T15:48:48.515Z,3.94
2023-02-14T15:51:27.029Z,3.79
2023-02-14T15:54:25.373Z,3.66
2023-02-14T15:56:54.160Z,3.50
2023-02-14T15:59:32.036Z,3.39
2023-02-14T16:02:17.674Z,3.24
2023-02-14T16:04:49.062Z,3.09
2023-02-14T16:07:29.884Z,3.01
2023-02-14T16:10:38.490Z,2.91
2023-02-14T16:13:30.266Z,2.77
2023-02-14T16:16:12.302Z,2.65
2023-02-14T16:29:52.460Z,2.10
2023-02-14T16:32:24.398Z,2.01
2023-02-14T16:34:51.407Z,1.92
2023-02-14T16:37:33.186Z,1.93
2023-02-14T16:40:13.248Z,1.80
2023-02-14T16:42:44.283Z,1.67
2023-02-14T16:45:19.462Z,1.66
2023-02-14T16:47:52.263Z,1.60
2023-02-14T16:50:22.310Z,1.56
2023-02-14T16:52:51.972Z,1.45
2023-02-14T16:55:20.542Z,1.31
2023-02-14T16:57:54.614Z,1.24
2023-02-14T17:00:22.734Z,1.18
2023-02-14T17:02:52.499Z,1.21
2023-02-14T17:05:24.376Z,1.13
2023-02-14T17:07:51.507Z,1.09
2023-02-14T17:10:21.127Z,1.10
2023-02-14T17:12:52.773Z,1.09
2023-02-14T17:15:31.074Z,1.02
2023-02-14T18:04:36.223Z,0.04
2023-02-14T18:07:05.294Z,0.03
2023-02-14T18:09:35.079Z,0.05
2023-02-14T18:12:04.181Z,0.02
2023-02-14T18:14:31.645Z,0.02
2023-02-14T18:16:58.647Z,-0.01
2023-02-14T18:19:25.615Z,-0.13
2023-02-14T18:21:53.480Z,-0.21
2023-02-14T18:24:21.154Z,-0.35
2023-02-14T18:40:20.627Z,-0.65
2023-02-14T19:18:03.581Z,-1.10
2023-02-14T19:20:34.726Z,-1.14
2023-02-14T19:23:02.153Z,-1.19
2023-02-14T19:25:29.434Z,-1.22
2023-02-14T19:27:59.358Z,-1.20
2023-02-14T19:30:26.054Z,-1.16
2023-02-14T19:32:59.030Z,-1.11
2023-02-14T19:35:25.839Z,-1.12
2023-02-14T19:37:54.546Z,-1.18
2023-02-14T19:40:22.039Z,-1.10
2023-02-14T19:42:53.841Z,-1.05
2023-02-14T19:45:20.513Z,-0.91
2023-02-14T19:47:56.983Z,-0.31
2023-02-14T21:09:38.952Z,1.63
2023-02-14T21:28:23.569Z,1.69
2023-02-14T21:30:55.512Z,1.65
2023-02-14T21:33:25.302Z,1.64
2023-02-14T21:35:51.916Z,1.66
2023-02-14T21:38:18.635Z,1.73
2023-02-14T21:40:45.455Z,1.78
2023-02-14T21:43:12.164Z,1.78
2023-02-14T21:45:56.236Z,1.84
2023-02-14T21:48:52.322Z,1.77
2023-02-14T21:51:22.936Z,1.82
2023-02-14T21:53:50.911Z,1.81
2023-02-14T21:56:20.782Z,1.85
2023-02-14T21:58:51.304Z,1.82
2023-02-14T22:01:28.633Z,1.84
2023-02-14T22:04:04.901Z,1.84
2023-02-14T22:06:31.537Z,1.83
2023-02-14T22:09:03.704Z,1.83
2023-02-14T22:11:34.596Z,1.84
2023-02-14T22:14:01.460Z,1.88
2023-02-14T22:16:28.866Z,1.87
2023-02-14T22:18:59.181Z,1.80
2023-02-14T22:21:27.073Z,1.97
2023-02-14T22:23:59.125Z,1.98
2023-02-14T22:26:52.093Z,1.96
2023-02-14T22:29:18.838Z,1.96
2023-02-14T22:31:46.197Z,1.94
2023-02-14T22:34:17.835Z,1.90
2023-02-14T22:36:44.800Z,1.92
2023-02-14T22:39:16.078Z,1.91
2023-02-14T22:41:43.820Z,1.93
2023-02-14T22:44:12.457Z,1.91
2023-02-14T22:46:43.727Z,1.88
2023-02-14T22:49:10.465Z,1.93
2023-02-14T22:51:43.117Z,1.84
2023-02-14T22:54:17.652Z,1.86
2023-02-14T22:56:51.434Z,1.87
2023-02-14T22:59:28.657Z,1.93
2023-02-14T23:01:58.020Z,1.95
2023-02-14T23:04:26.127Z,1.92
2023-02-14T23:06:53.998Z,1.94
2023-02-14T23:09:23.092Z,1.93
2023-02-14T23:11:51.166Z,1.92
2023-02-14T23:14:38.241Z,1.91
2023-02-14T23:17:18.547Z,1.93
2023-02-14T23:20:06.039Z,1.86
2023-02-14T23:22:38.127Z,1.84
2023-02-14T23:25:12.225Z,1.83
2023-02-14T23:27:47.491Z,1.77
2023-02-14T23:30:18.942Z,1.76
2023-02-14T23:32:46.032Z,1.79
2023-02-14T23:35:13.641Z,1.81
2023-02-14T23:37:43.538Z,1.73
2023-02-14T23:40:11.093Z,1.63
2023-02-14T23:42:37.716Z,1.64
2023-02-14T23:45:23.720Z,1.64
2023-02-14T23:47:50.760Z,1.66
2023-02-14T23:50:17.810Z,1.62
2023-02-14T23:52:44.685Z,1.56
2023-02-14T23:55:17.306Z,1.56
2023-02-14T23:57:44.012Z,1.50
